world map with MZI marked

MZI - Airport

This information may not be accurate or current and is not valid for navigation or flight planning. No warranty of fitness for any purpose is made or implied.

flag of Mali

Donate via PayPal

Additional information is available on the NEW Great Circle Mapper

Location
City:  Mopti Ambodedjo, Mopti, Mali
Name:Sevare AB
ICAO / IATA:GAMB / MZI

Details
Type:Airport (Aerodrome, Airfield)
Use:Military
Latitude:14°30'46"N (14.512803)
Longitude:4°04'46"W (-4.079560)
Datum:WGS 1984
Elevation:906 ft (276 m)
Runways:1
Longest:8340 × 94 ft (2542 × 28.5 m)

Time
Timezone:UTC+0 (DST+2)
Local Time:

Weather
METAR:GAMB  160300Z 16004KT CAVOK 23/18 Q1011

Related Locations
Nearby:
Farthest:RTA: 12274 mi / 19753 km
Elsee, Rotuma Island, FJ

Find:

   beyond  
but within

Other Information
Maps:
Sources:

  


 


Great Circle Mapper   Great Circle Mapper
Great Circle Mapper FAQ   Great Circle Mapper FAQ
  Karl's Home Page
KLSē   KLSē Home
   GC on Facebook
Airlines of the World   Airlines of the World
Donate via PayPal


Copyright © 2004-2018, Karl L. Swartz. All rights reserved.
All trademarks mentioned herein belong to their respective owners.

Please see credits for attribution and copyright information.

Karl Swartz <karl@kls2.com>
  Powered by FreeBSD
Valid HTML 4.01!
Labeled with ICRA
hCard Microformat
Geo Microformat